Time,TemperatureF,DewpointF,PressureIn,WindDirection,WindDirectionDegrees,WindSpeedMPH,WindSpeedGustMPH,Humidity,HourlyPrecipIn,Conditions,Clouds,dailyrainin,SolarRadiationWatts/m^2,SoftwareType,DateUTC
2013-09-14 00:21:00,52.0,51.0,-100.00,West,264,17.0,23.0,96,0.00,,,0.01,0.000000,,2013-09-14 07:21:00,
2013-09-14 00:34:00,52.0,51.0,-100.00,West,264,17.0,23.0,96,0.00,,,0.01,0.000000,,2013-09-14 07:34:00,
2013-09-14 00:42:00,52.0,51.0,-100.00,West,264,17.0,23.0,96,0.00,,,0.01,0.000000,,2013-09-14 07:42:00,
2013-09-14 00:51:00,52.0,51.0,-100.00,West,265,16.0,23.0,96,0.00,,,0.01,0.000000,,2013-09-14 07:51:00,
2013-09-14 01:21:00,52.0,51.0,-100.00,West,265,16.0,23.0,96,0.00,,,0.01,0.000000,,2013-09-14 08:21:00,
2013-09-14 01:32:00,52.0,51.0,-100.00,West,265,16.0,23.0,96,0.00,,,0.01,0.000000,,2013-09-14 08:32:00,
2013-09-14 01:42:00,52.0,51.0,-100.00,West,265,16.0,23.0,96,0.00,,,0.01,0.000000,,2013-09-14 08:42:00,
2013-09-14 01:51:00,52.0,51.0,-100.00,West,269,19.0,23.0,96,0.00,,,0.01,0.000000,,2013-09-14 08:51:00,
2013-09-14 02:21:00,52.0,51.0,-100.00,West,269,19.0,23.0,96,0.00,,,0.01,0.000000,,2013-09-14 09:21:00,
2013-09-14 02:33:00,52.0,51.0,-100.00,West,269,19.0,23.0,96,0.00,,,0.01,0.000000,,2013-09-14 09:33:00,
2013-09-14 02:43:00,52.0,51.0,-100.00,West,269,19.0,23.0,96,0.00,,,0.01,0.000000,,2013-09-14 09:43:00,
2013-09-14 02:51:00,52.0,51.0,-100.00,West,275,18.0,26.0,96,0.00,,,0.01,0.000000,,2013-09-14 09:51:00,
2013-09-14 03:23:00,52.0,51.0,-100.00,West,275,18.0,26.0,96,0.00,,,0.01,0.000000,,2013-09-14 10:23:00,
2013-09-14 03:32:00,52.0,51.0,-100.00,West,275,18.0,26.0,96,0.00,,,0.01,0.000000,,2013-09-14 10:32:00,
2013-09-14 03:42:00,52.0,51.0,-100.00,West,275,18.0,26.0,96,0.00,,,0.01,0.000000,,2013-09-14 10:42:00,
2013-09-14 03:51:00,52.0,51.0,-100.00,West,278,18.0,24.0,96,0.00,,,0.01,0.000000,,2013-09-14 10:51:00,
2013-09-14 04:22:00,52.0,51.0,-100.00,West,278,18.0,24.0,96,0.00,,,0.01,0.000000,,2013-09-14 11:22:00,
2013-09-14 04:33:00,52.0,51.0,-100.00,West,278,18.0,24.0,96,0.00,,,0.01,0.000000,,2013-09-14 11:33:00,
2013-09-14 04:42:00,52.0,51.0,-100.00,West,278,18.0,24.0,96,0.00,,,0.01,0.000000,,2013-09-14 11:42:00,
2013-09-14 04:51:00,51.0,50.0,-100.00,West,271,14.0,21.0,96,0.00,,,0.01,0.000000,,2013-09-14 11:51:00,
2013-09-14 05:22:00,51.0,50.0,-100.00,West,271,14.0,21.0,96,0.00,,,0.01,0.000000,,2013-09-14 12:22:00,
2013-09-14 05:31:00,51.0,50.0,-100.00,West,271,14.0,21.0,96,0.00,,,0.01,0.000000,,2013-09-14 12:31:00,
2013-09-14 05:42:00,51.0,50.0,-100.00,West,271,14.0,21.0,96,0.00,,,0.01,0.000000,,2013-09-14 12:42:00,
2013-09-14 05:51:00,51.0,50.0,-100.00,West,274,17.0,21.0,96,0.00,,,0.00,0.000000,,2013-09-14 12:51:00,
2013-09-14 06:21:00,51.0,50.0,-100.00,West,274,17.0,21.0,96,0.00,,,0.00,0.000000,,2013-09-14 13:21:00,
2013-09-14 06:32:00,51.0,50.0,-100.00,West,274,17.0,21.0,96,0.00,,,0.00,0.000000,,2013-09-14 13:32:00,
2013-09-14 06:42:00,51.0,50.0,-100.00,West,274,17.0,21.0,96,0.00,,,0.00,0.000000,,2013-09-14 13:42:00,
2013-09-14 06:51:00,51.0,50.0,-100.00,West,275,16.0,22.0,97,0.01,,,0.01,0.000000,,2013-09-14 13:51:00,
2013-09-14 07:22:00,51.0,50.0,-100.00,West,275,16.0,22.0,97,0.01,,,0.01,0.000000,,2013-09-14 14:22:00,
2013-09-14 07:32:00,51.0,50.0,-100.00,West,275,16.0,22.0,97,0.01,,,0.01,0.000000,,2013-09-14 14:32:00,
2013-09-14 07:42:00,51.0,50.0,-100.00,West,275,16.0,22.0,97,0.01,,,0.01,0.000000,,2013-09-14 14:42:00,
2013-09-14 07:51:00,52.0,51.0,-100.00,West,270,18.0,21.0,96,0.00,,,0.01,63.000000,,2013-09-14 14:51:00,
2013-09-14 08:22:00,52.0,51.0,-100.00,West,270,18.0,21.0,96,0.00,,,0.01,63.000000,,2013-09-14 15:22:00,
2013-09-14 08:33:00,52.0,51.0,-100.00,West,270,18.0,21.0,96,0.00,,,0.01,63.000000,,2013-09-14 15:33:00,
2013-09-14 08:43:00,52.0,51.0,-100.00,West,270,18.0,21.0,96,0.00,,,0.01,63.000000,,2013-09-14 15:43:00,
2013-09-14 08:51:00,54.0,53.0,-100.00,West,267,16.0,23.0,96,0.00,,,0.01,213.000000,,2013-09-14 15:51:00,
2013-09-14 09:23:00,54.0,53.0,-100.00,West,267,16.0,23.0,96,0.00,,,0.01,213.000000,,2013-09-14 16:23:00,
2013-09-14 09:33:00,54.0,53.0,-100.00,West,267,16.0,23.0,96,0.00,,,0.01,213.000000,,2013-09-14 16:33:00,
2013-09-14 09:44:00,54.0,53.0,-100.00,West,267,16.0,23.0,96,0.00,,,0.01,213.000000,,2013-09-14 16:44:00,
2013-09-14 09:51:00,57.0,56.0,-100.00,West,273,12.0,21.0,95,0.00,,,0.01,329.000000,,2013-09-14 16:51:00,
2013-09-14 10:23:00,57.0,56.0,-100.00,West,273,12.0,21.0,95,0.00,,,0.01,329.000000,,2013-09-14 17:23:00,
2013-09-14 10:33:00,57.0,56.0,-100.00,West,273,12.0,21.0,95,0.00,,,0.01,329.000000,,2013-09-14 17:33:00,
2013-09-14 10:43:00,57.0,56.0,-100.00,West,273,12.0,21.0,95,0.00,,,0.01,329.000000,,2013-09-14 17:43:00,
2013-09-14 10:51:00,59.0,56.0,-100.00,West,276,11.0,18.0,89,0.00,,,0.01,434.000000,,2013-09-14 17:51:00,
2013-09-14 11:22:00,59.0,56.0,-100.00,West,276,11.0,18.0,89,0.00,,,0.01,434.000000,,2013-09-14 18:22:00,
2013-09-14 11:32:00,59.0,56.0,-100.00,West,276,11.0,18.0,89,0.00,,,0.01,434.000000,,2013-09-14 18:32:00,
2013-09-14 11:43:00,59.0,56.0,-100.00,West,276,11.0,18.0,89,0.00,,,0.01,434.000000,,2013-09-14 18:43:00,
2013-09-14 11:51:00,62.0,55.0,-100.00,WNW,290,15.0,21.0,79,0.00,,,0.01,546.000000,,2013-09-14 18:51:00,
2013-09-14 12:22:00,62.0,55.0,-100.00,WNW,290,15.0,21.0,79,0.00,,,0.01,546.000000,,2013-09-14 19:22:00,
2013-09-14 12:32:00,62.0,55.0,-100.00,WNW,290,15.0,21.0,79,0.00,,,0.01,546.000000,,2013-09-14 19:32:00,
2013-09-14 12:42:00,62.0,55.0,-100.00,WNW,290,15.0,21.0,79,0.00,,,0.01,546.000000,,2013-09-14 19:42:00,
2013-09-14 12:51:00,64.0,56.0,-100.00,WNW,284,16.0,22.0,74,0.00,,,0.01,615.000000,,2013-09-14 19:51:00,
2013-09-14 13:22:00,64.0,56.0,-100.00,WNW,284,16.0,22.0,74,0.00,,,0.01,615.000000,,2013-09-14 20:22:00,
2013-09-14 13:32:00,64.0,56.0,-100.00,WNW,284,16.0,22.0,74,0.00,,,0.01,615.000000,,2013-09-14 20:32:00,
2013-09-14 13:42:00,64.0,56.0,-100.00,WNW,284,16.0,22.0,74,0.00,,,0.01,615.000000,,2013-09-14 20:42:00,
2013-09-14 15:51:00,69.0,54.0,-100.00,West,281,17.0,23.0,59,-99.99,,,0.01,701.000000,,2013-09-14 22:51:00,
2013-09-14 16:23:00,69.0,54.0,-100.00,West,281,17.0,23.0,59,-99.99,,,0.01,701.000000,,2013-09-14 23:23:00,
2013-09-14 16:34:00,69.0,54.0,-100.00,West,281,17.0,23.0,59,-99.99,,,0.01,701.000000,,2013-09-14 23:34:00,
2013-09-14 16:42:00,69.0,54.0,-100.00,West,281,17.0,23.0,59,-99.99,,,0.01,701.000000,,2013-09-14 23:42:00,
2013-09-14 16:51:00,66.0,53.0,-100.00,WNW,284,19.0,25.0,62,0.00,,,0.01,549.000000,,2013-09-14 23:51:00,
2013-09-14 17:22:00,66.0,53.0,-100.00,WNW,284,19.0,25.0,62,0.00,,,0.01,549.000000,,2013-09-15 00:22:00,
2013-09-14 17:32:00,66.0,53.0,-100.00,WNW,284,19.0,25.0,62,0.00,,,0.01,549.000000,,2013-09-15 00:32:00,
2013-09-14 17:42:00,66.0,53.0,-100.00,WNW,284,19.0,25.0,62,0.00,,,0.01,549.000000,,2013-09-15 00:42:00,
2013-09-14 17:51:00,63.0,53.0,-100.00,WNW,287,18.0,25.0,69,0.00,,,0.01,364.000000,,2013-09-15 00:51:00,
2013-09-14 18:22:00,63.0,53.0,-100.00,WNW,287,18.0,25.0,69,0.00,,,0.01,364.000000,,2013-09-15 01:22:00,
2013-09-14 18:32:00,63.0,53.0,-100.00,WNW,287,18.0,25.0,69,0.00,,,0.01,364.000000,,2013-09-15 01:32:00,
2013-09-14 18:42:00,63.0,53.0,-100.00,WNW,287,18.0,25.0,69,0.00,,,0.01,364.000000,,2013-09-15 01:42:00,
2013-09-14 18:51:00,57.0,52.0,-100.00,WNW,283,19.0,27.0,82,0.00,,,0.01,166.000000,,2013-09-15 01:51:00,
2013-09-14 19:22:00,57.0,52.0,-100.00,WNW,283,19.0,27.0,82,0.00,,,0.01,166.000000,,2013-09-15 02:22:00,
2013-09-14 19:32:00,57.0,52.0,-100.00,WNW,283,19.0,27.0,82,0.00,,,0.01,166.000000,,2013-09-15 02:32:00,
2013-09-14 19:42:00,57.0,52.0,-100.00,WNW,283,19.0,27.0,82,0.00,,,0.01,166.000000,,2013-09-15 02:42:00,
2013-09-14 19:51:00,54.0,52.0,-100.00,WNW,283,21.0,33.0,92,0.00,,,0.01,11.000000,,2013-09-15 02:51:00,
2013-09-14 20:22:00,54.0,52.0,-100.00,WNW,283,21.0,33.0,92,0.00,,,0.01,11.000000,,2013-09-15 03:22:00,
2013-09-14 20:34:00,54.0,52.0,-100.00,WNW,283,21.0,33.0,92,0.00,,,0.01,11.000000,,2013-09-15 03:34:00,
2013-09-14 20:44:00,54.0,52.0,-100.00,WNW,283,21.0,33.0,92,0.00,,,0.01,11.000000,,2013-09-15 03:44:00,
2013-09-14 20:51:00,53.0,51.0,-100.00,West,275,21.0,27.0,94,0.00,,,0.01,0.000000,,2013-09-15 03:51:00,
2013-09-14 21:24:00,53.0,51.0,-100.00,West,275,21.0,27.0,94,0.00,,,0.01,0.000000,,2013-09-15 04:24:00,
2013-09-14 21:33:00,53.0,51.0,-100.00,West,275,21.0,27.0,94,0.00,,,0.01,0.000000,,2013-09-15 04:33:00,
2013-09-14 21:43:00,53.0,51.0,-100.00,West,275,21.0,27.0,94,0.00,,,0.01,0.000000,,2013-09-15 04:43:00,
2013-09-14 21:51:00,53.0,52.0,-100.00,West,278,21.0,27.0,95,0.00,,,0.01,0.000000,,2013-09-15 04:51:00,
2013-09-14 22:22:00,53.0,52.0,-100.00,West,278,21.0,27.0,95,0.00,,,0.01,0.000000,,2013-09-15 05:22:00,
2013-09-14 22:34:00,53.0,52.0,-100.00,West,278,21.0,27.0,95,0.00,,,0.01,0.000000,,2013-09-15 05:34:00,
2013-09-14 22:42:00,53.0,52.0,-100.00,West,278,21.0,27.0,95,0.00,,,0.01,0.000000,,2013-09-15 05:42:00,
2013-09-14 22:51:00,53.0,52.0,-100.00,West,276,20.0,29.0,95,0.00,,,0.01,0.000000,,2013-09-15 05:51:00,
2013-09-14 23:21:00,53.0,52.0,-100.00,West,276,20.0,29.0,95,0.00,,,0.01,0.000000,,2013-09-15 06:21:00,
2013-09-14 23:32:00,53.0,52.0,-100.00,West,276,20.0,29.0,95,0.00,,,0.01,0.000000,,2013-09-15 06:32:00,
2013-09-14 23:42:00,53.0,52.0,-100.00,West,276,20.0,29.0,95,0.00,,,0.01,0.000000,,2013-09-15 06:42:00,
2013-09-14 23:51:00,52.0,51.0,-100.00,West,278,18.0,28.0,95,0.00,,,0.01,0.000000,,2013-09-15 06:51:00,